Time;durP1;ratioP1;P1;durP2;ratioP2;P2;SDS_P1;SDS_P2;PMS_P1;PMS_P2;Temp;Humidity;BMP_temperature;BMP_pressure;BME280_temperature;BME280_humidity;BME280_pressure;Samples;Min_cycle;Max_cycle;Signal;HPM_P1;HPM_P2
2022/04/02 00:01:43;;;;;;;6.80;3.97;;;0.50;99.90;;;;;;4814620;29;20030;-88
2022/04/02 00:04:10;;;;;;;8.35;4.47;;;0.50;99.90;;;;;;4813415;29;20034;-88
2022/04/02 00:06:36;;;;;;;7.03;3.88;;;0.50;99.90;;;;;;4813567;29;20035;-88
2022/04/02 00:09:02;;;;;;;10.15;4.75;;;0.40;99.90;;;;;;4810350;29;20133;-88
2022/04/02 00:11:28;;;;;;;8.85;5.03;;;0.40;99.90;;;;;;4810880;29;20034;-87
2022/04/02 00:13:54;;;;;;;8.63;4.93;;;0.40;99.90;;;;;;4810413;29;20030;-88
2022/04/02 00:16:20;;;;;;;10.55;4.60;;;0.40;99.90;;;;;;4810183;29;20049;-87
2022/04/02 00:18:49;;;;;;;8.27;4.88;;;0.40;99.90;;;;;;4810058;29;20117;-88
2022/04/02 00:21:15;;;;;;;7.65;3.90;;;0.40;99.90;;;;;;4809867;29;20042;-88
2022/04/02 00:23:43;;;;;;;7.63;4.85;;;0.30;99.90;;;;;;4826232;29;20284;-88
2022/04/02 00:26:11;;;;;;;8.15;4.72;;;0.30;99.90;;;;;;4810129;29;20129;-88
2022/04/02 00:28:39;;;;;;;9.52;5.10;;;0.30;99.90;;;;;;4811531;29;20409;-87
2022/04/02 00:31:07;;;;;;;9.60;5.13;;;0.30;99.90;;;;;;4810715;29;20394;-88
2022/04/02 00:33:34;;;;;;;7.50;4.82;;;0.30;99.90;;;;;;4810366;29;20625;-87
2022/04/02 00:36:00;;;;;;;8.07;4.40;;;0.30;99.90;;;;;;4809982;29;20038;-88
2022/04/02 00:38:26;;;;;;;10.43;5.20;;;0.30;99.90;;;;;;4809389;29;20034;-87
2022/04/02 00:40:52;;;;;;;10.07;4.93;;;0.30;99.90;;;;;;4809220;29;20125;-89
2022/04/02 00:43:28;;;;;;;10.50;4.85;;;0.30;99.90;;;;;;4809174;29;20080;-88
2022/04/02 00:45:57;;;;;;;5.95;3.63;;;0.30;99.90;;;;;;4808974;29;20034;-88
2022/04/02 00:48:23;;;;;;;6.43;4.18;;;0.30;99.90;;;;;;4808782;29;20046;-88
2022/04/02 00:50:56;;;;;;;7.97;4.32;;;0.40;99.90;;;;;;4808843;29;20038;-88
2022/04/02 00:53:31;;;;;;;7.82;5.00;;;0.30;99.90;;;;;;4808545;29;20038;-88
2022/04/02 00:55:59;;;;;;;11.52;5.28;;;0.30;99.90;;;;;;4808511;29;20393;-88
2022/04/02 00:58:25;;;;;;;16.13;6.72;;;0.20;99.90;;;;;;4808681;29;20076;-88
2022/04/02 01:00:50;;;;;;;15.15;7.60;;;0.20;99.90;;;;;;4808418;29;20066;-88
2022/04/02 01:03:16;;;;;;;12.40;6.95;;;0.10;99.90;;;;;;4808673;29;20061;-88
2022/04/02 01:05:44;;;;;;;20.98;8.82;;;0.10;99.90;;;;;;4808830;29;20136;-88
2022/04/02 01:08:10;;;;;;;11.52;6.63;;;0.00;99.90;;;;;;4808190;29;20065;-88
2022/04/02 01:10:38;;;;;;;11.23;6.85;;;0.00;99.90;;;;;;4808409;29;20094;-89
2022/04/02 01:13:05;;;;;;;10.82;6.20;;;0.00;99.90;;;;;;4808086;29;20491;-87
2022/04/02 01:15:31;;;;;;;13.95;5.55;;;0.10;99.90;;;;;;4808258;29;20387;-88
2022/04/02 01:17:57;;;;;;;15.05;6.28;;;0.10;99.90;;;;;;4808203;29;20059;-89
2022/04/02 01:20:23;;;;;;;11.82;5.72;;;0.10;99.90;;;;;;4808346;29;20057;-89
2022/04/02 01:22:49;;;;;;;12.55;5.95;;;0.10;99.90;;;;;;4807664;29;20054;-88
2022/04/02 01:25:16;;;;;;;11.90;5.97;;;0.10;99.90;;;;;;4808554;29;20054;-89
2022/04/02 01:27:46;;;;;;;10.38;5.03;;;0.10;99.90;;;;;;4808259;29;20038;-88
2022/04/02 01:30:13;;;;;;;9.40;5.37;;;0.10;99.90;;;;;;4808376;29;20035;-89
2022/04/02 01:32:39;;;;;;;11.48;6.18;;;0.10;99.90;;;;;;4808691;29;20057;-89
2022/04/02 01:35:06;;;;;;;9.70;4.57;;;0.10;99.90;;;;;;4808309;29;20084;-89
2022/04/02 01:37:32;;;;;;;8.57;5.13;;;0.10;99.90;;;;;;4807980;29;20026;-88
2022/04/02 01:39:58;;;;;;;7.70;4.60;;;0.10;99.90;;;;;;4808510;29;20041;-88
2022/04/02 01:42:24;;;;;;;9.82;4.70;;;0.10;99.90;;;;;;4808283;29;20176;-89
2022/04/02 01:44:53;;;;;;;7.20;4.25;;;0.10;99.90;;;;;;4807858;29;20517;-88
2022/04/02 01:47:19;;;;;;;10.43;4.50;;;0.10;99.90;;;;;;4808198;29;20167;-88
2022/04/02 01:49:46;;;;;;;8.82;4.35;;;0.10;99.90;;;;;;4808597;29;20137;-88
2022/04/02 01:52:21;;;;;;;8.10;4.60;;;0.10;99.90;;;;;;4797688;29;20038;-89
2022/04/02 01:54:48;;;;;;;8.90;3.88;;;0.10;99.90;;;;;;4809292;29;20046;-89
2022/04/02 01:57:14;;;;;;;11.88;4.97;;;0.10;99.90;;;;;;4809131;29;20485;-88
2022/04/02 01:59:40;;;;;;;10.05;5.05;;;0.10;99.90;;;;;;4808452;29;20038;-89
2022/04/02 02:02:07;;;;;;;13.18;6.32;;;0.20;99.90;;;;;;4812350;29;20045;-88
2022/04/02 02:04:36;;;;;;;13.80;5.47;;;0.10;99.90;;;;;;4808025;29;20035;-89
2022/04/02 02:07:03;;;;;;;9.27;5.50;;;0.10;99.90;;;;;;4807796;29;20073;-88
2022/04/02 02:09:29;;;;;;;9.63;4.30;;;0.10;99.90;;;;;;4807640;29;20413;-88
2022/04/02 02:11:56;;;;;;;9.75;4.93;;;0.10;99.90;;;;;;4808417;29;20042;-88
2022/04/02 02:14:22;;;;;;;12.30;5.90;;;0.10;99.90;;;;;;4807857;29;20030;-89
2022/04/02 02:16:48;;;;;;;12.80;5.85;;;0.10;99.90;;;;;;4808183;29;20145;-88
2022/04/02 02:19:14;;;;;;;12.65;5.88;;;0.20;99.90;;;;;;4808316;29;20118;-88
2022/04/02 02:21:40;;;;;;;13.45;6.35;;;0.20;99.90;;;;;;4792840;29;20053;-88
2022/04/02 02:24:06;;;;;;;10.15;5.85;;;0.10;99.90;;;;;;4808153;29;20038;-88
2022/04/02 02:26:32;;;;;;;10.93;6.05;;;0.10;99.90;;;;;;4811551;29;20030;-89
2022/04/02 02:28:58;;;;;;;12.77;6.05;;;0.00;99.90;;;;;;4814122;29;20039;-89
2022/04/02 02:31:24;;;;;;;10.02;5.82;;;0.00;99.90;;;;;;4816121;29;20056;-88
2022/04/02 02:36:34;;;;;;;12.43;6.10;;;-0.10;99.90;;;;;;4829530;29;20129;-89
2022/04/02 02:39:00;;;;;;;13.50;6.25;;;-0.10;99.90;;;;;;4808456;29;20150;-89
2022/04/02 02:41:26;;;;;;;10.88;6.57;;;-0.20;99.90;;;;;;4808088;29;20035;-89
2022/04/02 02:43:52;;;;;;;11.15;6.22;;;-0.20;99.90;;;;;;4808222;29;20507;-88
2022/04/02 02:46:18;;;;;;;13.05;6.55;;;-0.10;99.90;;;;;;4807737;29;20121;-88
2022/04/02 02:48:45;;;;;;;11.68;6.20;;;-0.10;99.90;;;;;;4807570;29;20077;-87
2022/04/02 02:51:11;;;;;;;16.65;5.90;;;-0.10;99.90;;;;;;4807459;29;20046;-87
2022/04/02 02:53:37;;;;;;;14.20;5.97;;;-0.10;99.90;;;;;;4807621;29;20034;-87
2022/04/02 02:56:03;;;;;;;12.32;6.43;;;-0.10;99.90;;;;;;4807446;29;20078;-87
2022/04/02 02:58:29;;;;;;;10.55;5.97;;;0.00;99.90;;;;;;4807604;29;20026;-89
2022/04/02 03:00:54;;;;;;;11.23;6.07;;;0.00;99.90;;;;;;4806715;29;20103;-89
2022/04/02 03:03:22;;;;;;;12.48;6.28;;;0.00;99.90;;;;;;4807078;29;20066;-89
2022/04/02 03:05:48;;;;;;;13.07;5.65;;;0.00;99.90;;;;;;4806950;29;20035;-89
2022/04/02 03:08:14;;;;;;;14.30;6.25;;;0.10;99.90;;;;;;4808205;29;20091;-89
2022/04/02 03:10:40;;;;;;;11.75;6.70;;;0.00;99.90;;;;;;4811297;29;20030;-89
2022/04/02 03:13:07;;;;;;;11.30;6.20;;;0.10;99.90;;;;;;4811015;29;20038;-88
2022/04/02 03:15:32;;;;;;;12.73;6.55;;;0.00;99.90;;;;;;4810779;29;20493;-88
2022/04/02 03:18:06;;;;;;;11.68;6.70;;;0.10;99.90;;;;;;4810872;29;20034;-88
2022/04/02 03:20:32;;;;;;;16.85;7.00;;;0.10;99.90;;;;;;4811382;29;20454;-89
2022/04/02 03:22:58;;;;;;;12.55;7.03;;;0.00;99.90;;;;;;4811359;29;20494;-88
2022/04/02 03:25:24;;;;;;;13.98;6.80;;;0.00;99.90;;;;;;4811466;29;20183;-88
2022/04/02 03:27:50;;;;;;;12.55;6.68;;;0.00;99.90;;;;;;4811598;29;20038;-89
2022/04/02 03:30:19;;;;;;;14.23;6.05;;;0.10;99.90;;;;;;4810683;29;20130;-88
2022/04/02 03:32:46;;;;;;;12.73;5.88;;;0.10;99.90;;;;;;4810744;29;20438;-88
2022/04/02 03:35:14;;;;;;;11.90;5.88;;;0.10;99.90;;;;;;4811343;29;20129;-87
2022/04/02 03:37:41;;;;;;;10.70;5.80;;;0.10;99.90;;;;;;4811879;29;20034;-88
2022/04/02 03:40:10;;;;;;;13.40;6.47;;;0.10;99.90;;;;;;4811351;29;20030;-87
2022/04/02 03:42:37;;;;;;;14.13;6.78;;;0.10;99.90;;;;;;4810725;29;20034;-88
2022/04/02 03:45:04;;;;;;;13.43;6.82;;;0.10;99.90;;;;;;4810649;29;20053;-88
2022/04/02 03:47:31;;;;;;;15.68;6.50;;;0.10;99.90;;;;;;4809749;29;20046;-88
2022/04/02 03:49:57;;;;;;;12.80;6.88;;;0.10;99.90;;;;;;4810222;29;20049;-88
2022/04/02 03:52:23;;;;;;;11.73;6.65;;;0.10;99.90;;;;;;4810136;29;20041;-88
2022/04/02 03:54:49;;;;;;;14.07;6.88;;;0.00;99.90;;;;;;4810509;29;20045;-89
2022/04/02 03:57:15;;;;;;;14.98;7.35;;;0.00;99.90;;;;;;4810070;29;20030;-87
2022/04/02 03:59:42;;;;;;;13.48;7.20;;;0.00;99.90;;;;;;4810209;29;20027;-87
2022/04/02 04:02:08;;;;;;;14.30;7.10;;;0.00;99.90;;;;;;4809850;29;20034;-87
2022/04/02 04:04:34;;;;;;;13.63;7.45;;;0.00;99.90;;;;;;4810388;29;20480;-86
2022/04/02 04:07:00;;;;;;;13.27;6.88;;;0.00;99.90;;;;;;4810406;29;20030;-87
2022/04/02 04:09:26;;;;;;;14.50;7.15;;;0.00;99.90;;;;;;4810142;29;20042;-87
2022/04/02 04:11:53;;;;;;;18.40;6.57;;;0.00;99.90;;;;;;4810823;29;20378;-87
2022/04/02 04:14:20;;;;;;;13.38;6.55;;;0.00;99.90;;;;;;4809920;29;20366;-87
2022/04/02 04:16:46;;;;;;;11.88;6.00;;;0.00;99.90;;;;;;4809854;29;20030;-89
2022/04/02 04:19:13;;;;;;;20.02;6.70;;;0.00;99.90;;;;;;4810017;29;20058;-89
2022/04/02 04:21:40;;;;;;;12.43;6.88;;;0.00;99.90;;;;;;4809830;29;20047;-88
2022/04/02 04:24:06;;;;;;;15.43;6.68;;;0.00;99.90;;;;;;4810313;29;20046;-87
2022/04/02 04:26:32;;;;;;;12.65;7.10;;;0.00;99.90;;;;;;4809829;29;20146;-88
2022/04/02 04:28:58;;;;;;;15.63;7.50;;;0.00;99.90;;;;;;4810147;29;20153;-88
2022/04/02 04:31:24;;;;;;;10.63;5.60;;;0.00;99.90;;;;;;4809682;29;20030;-86
2022/04/02 04:33:50;;;;;;;13.98;6.30;;;0.00;99.90;;;;;;4810193;29;20125;-87
2022/04/02 04:36:20;;;;;;;12.80;7.20;;;0.00;99.90;;;;;;4810772;29;20078;-88
2022/04/02 04:38:46;;;;;;;10.48;6.30;;;-0.10;99.90;;;;;;4809912;29;20049;-87
2022/04/02 04:41:13;;;;;;;11.48;5.93;;;0.00;99.90;;;;;;4810097;29;20038;-86
2022/04/02 04:43:41;;;;;;;9.85;5.18;;;0.00;99.90;;;;;;4813648;29;20449;-89
2022/04/02 04:46:08;;;;;;;11.05;6.25;;;0.10;99.90;;;;;;4810710;29;20049;-89
2022/04/02 04:48:37;;;;;;;12.90;6.15;;;0.10;99.90;;;;;;4809612;29;20134;-88
2022/04/02 04:51:04;;;;;;;10.07;5.55;;;0.10;99.90;;;;;;4810292;29;20121;-89
2022/04/02 04:53:31;;;;;;;10.25;6.13;;;0.10;99.90;;;;;;4826998;29;20058;-88
2022/04/02 04:56:00;;;;;;;12.52;5.93;;;0.10;99.90;;;;;;4795965;29;20045;-88
2022/04/02 04:58:27;;;;;;;9.43;5.57;;;0.10;99.90;;;;;;4812050;29;20109;-88
2022/04/02 05:00:55;;;;;;;14.27;7.05;;;0.10;99.90;;;;;;4816227;29;20071;-88
2022/04/02 05:03:25;;;;;;;12.20;6.13;;;0.10;99.90;;;;;;4818455;29;20030;-88
2022/04/02 05:05:52;;;;;;;13.32;6.28;;;0.10;99.90;;;;;;4815486;29;20050;-88
2022/04/02 05:08:22;;;;;;;13.57;6.30;;;0.10;99.90;;;;;;4813623;29;20053;-89
2022/04/02 05:10:48;;;;;;;14.27;6.10;;;0.00;99.90;;;;;;4811112;29;20038;-88
2022/04/02 05:13:14;;;;;;;12.65;6.47;;;0.00;99.90;;;;;;4810627;29;20385;-89
2022/04/02 05:15:44;;;;;;;11.10;6.78;;;0.00;99.90;;;;;;4810667;29;20038;-89
2022/04/02 05:18:11;;;;;;;13.17;5.70;;;0.00;99.90;;;;;;4810407;29;20033;-89
2022/04/02 05:20:41;;;;;;;13.57;6.10;;;0.00;99.90;;;;;;4810567;29;20402;-89
2022/04/02 05:23:07;;;;;;;10.60;5.57;;;0.00;99.90;;;;;;4810040;29;20082;-88
2022/04/02 05:25:34;;;;;;;14.02;6.15;;;-0.10;99.90;;;;;;4811916;29;20036;-89
2022/04/02 05:28:05;;;;;;;14.18;5.63;;;-0.10;99.90;;;;;;4811536;29;20508;-88
2022/04/02 05:30:33;;;;;;;;;;;-0.10;99.90;;;;;;4810975;29;20434;-86
2022/04/02 05:32:59;;;;;;;10.75;5.57;;;-0.20;99.90;;;;;;4809023;29;19912;-88
2022/04/02 05:35:25;;;;;;;13.38;6.20;;;-0.20;99.90;;;;;;4809768;29;20031;-88
2022/04/02 05:37:51;;;;;;;17.20;6.55;;;-0.30;99.90;;;;;;4809119;29;20031;-88
2022/04/02 05:40:16;;;;;;;16.95;7.68;;;-0.40;99.90;;;;;;4810315;29;20467;-88
2022/04/02 05:42:42;;;;;;;13.68;6.38;;;-0.40;99.90;;;;;;4809138;29;20129;-88
2022/04/02 05:45:09;;;;;;;11.43;6.47;;;-0.40;99.90;;;;;;4809560;29;20216;-89
2022/04/02 05:47:42;;;;;;;21.75;6.38;;;-0.40;99.90;;;;;;4809061;29;20026;-89
2022/04/02 05:50:10;;;;;;;16.27;6.95;;;-0.40;99.90;;;;;;4810073;29;20094;-89
2022/04/02 05:52:36;;;;;;;18.00;7.50;;;-0.40;99.90;;;;;;4812652;29;20131;-88
2022/04/02 05:55:01;;;;;;;15.45;7.00;;;-0.40;99.90;;;;;;4835335;29;20033;-87
2022/04/02 05:57:28;;;;;;;18.48;7.68;;;-0.40;99.90;;;;;;4818712;29;20023;-89
2022/04/02 05:59:54;;;;;;;17.20;7.72;;;-0.40;99.90;;;;;;4816941;29;20038;-88
2022/04/02 06:02:20;;;;;;;14.75;7.28;;;-0.40;99.90;;;;;;4814658;29;20481;-87
2022/04/02 06:04:45;;;;;;;18.42;8.05;;;-0.40;99.90;;;;;;4816503;29;20037;-88
2022/04/02 06:07:11;;;;;;;17.58;7.22;;;-0.40;99.90;;;;;;4816639;29;20125;-88
2022/04/02 06:09:37;;;;;;;14.15;7.22;;;-0.40;99.90;;;;;;4819228;29;20108;-90
2022/04/02 06:12:02;;;;;;;16.88;7.22;;;-0.40;99.90;;;;;;4815852;29;20033;-88
2022/04/02 06:14:28;;;;;;;14.30;6.60;;;-0.40;99.90;;;;;;4832152;29;20031;-89
2022/04/02 06:16:54;;;;;;;13.35;7.38;;;-0.40;99.90;;;;;;4816474;29;20090;-88
2022/04/02 06:19:21;;;;;;;14.65;7.45;;;-0.40;99.90;;;;;;4816170;29;20240;-88
2022/04/02 06:21:46;;;;;;;14.57;7.63;;;-0.40;99.90;;;;;;4819669;29;20054;-88
2022/04/02 06:24:12;;;;;;;17.77;8.50;;;-0.30;99.90;;;;;;4819214;29;20061;-88
2022/04/02 06:26:38;;;;;;;15.68;7.47;;;-0.30;99.90;;;;;;4821625;29;20049;-89
2022/04/02 06:29:04;;;;;;;17.58;8.07;;;-0.30;99.90;;;;;;4819897;29;20064;-87
2022/04/02 06:31:30;;;;;;;18.00;8.55;;;-0.30;99.90;;;;;;4816936;29;20026;-88
2022/04/02 06:33:55;;;;;;;18.75;8.88;;;-0.20;99.90;;;;;;4817663;29;20034;-88
2022/04/02 06:36:21;;;;;;;16.08;7.72;;;-0.20;99.90;;;;;;4818748;29;20174;-89
2022/04/02 06:38:47;;;;;;;16.90;7.72;;;-0.20;99.90;;;;;;4819210;29;20054;-89
2022/04/02 06:41:13;;;;;;;17.02;8.65;;;-0.20;99.90;;;;;;4816483;29;20035;-88
2022/04/02 06:43:38;;;;;;;19.98;9.93;;;-0.20;99.90;;;;;;4818114;29;20042;-90
2022/04/02 06:46:04;;;;;;;19.48;8.65;;;-0.20;99.90;;;;;;4821857;29;20026;-89
2022/04/02 06:48:30;;;;;;;16.95;8.05;;;-0.10;99.90;;;;;;4829598;29;20063;-89
2022/04/02 06:50:55;;;;;;;15.07;7.15;;;-0.10;99.90;;;;;;4831175;29;20023;-89
2022/04/02 06:53:21;;;;;;;15.38;8.10;;;-0.10;99.90;;;;;;4831214;29;20037;-90
2022/04/02 06:55:47;;;;;;;15.80;7.10;;;-0.20;99.90;;;;;;4831838;29;20029;-88
2022/04/02 06:58:27;;;;;;;14.07;7.45;;;-0.20;99.90;;;;;;4830918;29;20033;-89
2022/04/02 07:00:52;;;;;;;15.48;7.50;;;-0.20;99.90;;;;;;4832629;29;20030;-89
2022/04/02 07:03:18;;;;;;;18.58;7.97;;;-0.20;99.90;;;;;;4833235;29;20026;-88
2022/04/02 07:05:44;;;;;;;16.75;8.00;;;-0.20;99.90;;;;;;4825781;29;20055;-90
2022/04/02 07:08:10;;;;;;;14.20;7.97;;;-0.20;99.90;;;;;;4820959;29;20481;-91
2022/04/02 07:10:35;;;;;;;16.38;7.93;;;-0.10;99.90;;;;;;4821415;29;20069;-90
2022/04/02 07:13:01;;;;;;;17.65;8.18;;;-0.10;99.90;;;;;;4830879;29;20027;-90
2022/04/02 07:15:27;;;;;;;20.35;8.63;;;-0.10;99.90;;;;;;4820545;29;20032;-91
2022/04/02 07:17:52;;;;;;;19.05;8.48;;;0.00;99.90;;;;;;4818512;29;20041;-90
2022/04/02 07:20:19;;;;;;;22.77;9.45;;;0.10;99.90;;;;;;4820358;29;20388;-90
2022/04/02 07:22:47;;;;;;;18.08;7.85;;;0.10;99.90;;;;;;4820770;29;20050;-89
2022/04/02 07:25:13;;;;;;;22.23;8.95;;;0.20;99.90;;;;;;4825540;29;20058;-88
2022/04/02 07:27:40;;;;;;;18.95;8.68;;;0.30;99.90;;;;;;4822145;29;20080;-89
2022/04/02 07:30:07;;;;;;;16.42;8.13;;;0.30;99.90;;;;;;4818628;29;20430;-89
2022/04/02 07:32:32;;;;;;;21.77;8.38;;;0.50;99.90;;;;;;4823578;29;20068;-89
2022/04/02 07:34:58;;;;;;;23.50;8.70;;;0.50;99.90;;;;;;4830286;29;20046;-89
2022/04/02 07:37:33;;;;;;;20.30;10.23;;;0.60;99.90;;;;;;4826462;29;20434;-88
2022/04/02 07:40:09;;;;;;;36.13;15.73;;;0.70;99.90;;;;;;4818866;29;20038;-89
2022/04/02 07:42:59;;;;;;;25.10;10.68;;;0.70;99.90;;;;;;4813562;29;20170;-89
2022/04/02 07:45:35;;;;;;;18.50;9.65;;;0.80;99.90;;;;;;4828086;29;20034;-89
2022/04/02 07:48:06;;;;;;;19.42;8.57;;;0.80;99.90;;;;;;4822839;29;20125;-89
2022/04/02 07:50:33;;;;;;;;;;;0.80;99.90;;;;;;4824315;29;20114;-89
2022/04/02 07:52:59;;;;;;;21.50;8.35;;;1.00;99.90;;;;;;4821976;29;19918;-89
2022/04/02 07:55:28;;;;;;;17.60;8.70;;;1.00;99.90;;;;;;4821292;29;20489;-90
2022/04/02 07:58:00;;;;;;;19.08;8.57;;;1.20;99.90;;;;;;4826065;29;20747;-89
2022/04/02 08:00:27;;;;;;;16.52;8.05;;;1.40;99.90;;;;;;4827675;29;20055;-89
2022/04/02 08:02:53;;;;;;;15.88;6.80;;;1.50;99.90;;;;;;4825223;29;20026;-90
2022/04/02 08:05:21;;;;;;;18.73;7.57;;;1.70;99.90;;;;;;4813565;29;20066;-89
2022/04/02 08:07:54;;;;;;;18.67;6.72;;;1.80;99.90;;;;;;4811662;29;20392;-88
2022/04/02 08:10:23;;;;;;;17.98;7.43;;;1.90;99.90;;;;;;4812393;29;20027;-91
2022/04/02 08:12:49;;;;;;;9.90;5.57;;;2.10;99.90;;;;;;4817503;29;20031;-88
2022/04/02 08:15:25;;;;;;;15.32;5.55;;;2.20;99.90;;;;;;4817288;29;20053;-89
2022/04/02 08:17:55;;;;;;;19.90;5.90;;;2.30;99.90;;;;;;4811275;29;20026;-88
2022/04/02 08:20:25;;;;;;;11.45;5.18;;;2.40;99.90;;;;;;4811023;29;20086;-89
2022/04/02 08:22:51;;;;;;;18.73;5.85;;;2.50;99.90;;;;;;4810954;29;20132;-89
2022/04/02 08:25:17;;;;;;;13.77;5.40;;;2.50;99.90;;;;;;4811298;29;20031;-89
2022/04/02 08:28:05;;;;;;;13.68;4.95;;;2.50;99.90;;;;;;4825849;29;20037;-88
2022/04/02 08:31:18;;;;;;;16.40;6.72;;;2.50;99.90;;;;;;4830170;29;20041;-95
2022/04/02 08:34:31;;;;;;;15.90;6.60;;;2.50;99.90;;;;;;4822826;29;20034;-93
2022/04/02 08:41:36;;;;;;;;;;;;;;;;;;;;;
2022/04/02 12:46:23;;;;;;;4.15;1.08;;;10.20;71.90;;;;;;5717320;24;20065;-91
2022/04/02 12:48:49;;;;;;;;;;;10.60;70.50;;;;;;4833676;29;20129;-90
2022/04/02 12:51:17;;;;;;;2.17;1.13;;;10.90;69.80;;;;;;4829135;29;19908;-92
2022/04/02 12:53:47;;;;;;;4.05;1.10;;;11.10;69.20;;;;;;4828314;29;20030;-92
2022/04/02 12:56:22;;;;;;;6.82;1.30;;;11.00;68.50;;;;;;4845077;29;20135;-93
2022/04/02 12:58:50;;;;;;;2.67;1.00;;;11.00;68.20;;;;;;4827775;29;20041;-92
2022/04/02 13:01:25;;;;;;;2.97;0.98;;;10.90;68.10;;;;;;4829264;29;20392;-92
2022/04/02 13:04:00;;;;;;;1.40;0.98;;;10.80;68.30;;;;;;4847567;29;20041;-91
2022/04/02 13:06:30;;;;;;;2.40;0.90;;;10.70;68.50;;;;;;4831286;29;20484;-91
2022/04/02 13:09:19;;;;;;;2.17;0.85;;;10.60;68.50;;;;;;4831848;29;20042;-91
2022/04/02 13:11:59;;;;;;;3.10;1.20;;;10.40;68.70;;;;;;4829315;29;20040;-91
2022/04/02 13:14:29;;;;;;;2.47;0.80;;;10.40;69.00;;;;;;4829656;29;20388;-91
2022/04/02 13:17:09;;;;;;;3.20;0.67;;;10.40;68.90;;;;;;4829252;29;20393;-93
2022/04/02 13:22:41;;;;;;;2.25;0.70;;;10.30;68.00;;;;;;4849497;29;20045;-92
2022/04/02 13:25:14;;;;;;;4.22;0.70;;;10.20;67.70;;;;;;4833770;29;20030;-90
2022/04/02 13:28:17;;;;;;;3.15;0.60;;;10.10;68.30;;;;;;4832870;29;20029;-91
2022/04/02 13:30:49;;;;;;;4.25;0.80;;;10.10;67.50;;;;;;4835364;29;20030;-91
2022/04/02 13:33:46;;;;;;;3.83;0.75;;;10.00;67.00;;;;;;4835186;29;20120;-91
2022/04/02 13:36:12;;;;;;;1.52;0.80;;;9.90;67.40;;;;;;4836649;29;20030;-89
2022/04/02 13:39:00;;;;;;;3.78;0.80;;;9.80;67.60;;;;;;4834454;29;20403;-90
2022/04/02 13:41:28;;;;;;;5.15;1.27;;;9.80;67.60;;;;;;4834814;29;20096;-89
2022/04/02 13:44:00;;;;;;;2.03;0.88;;;9.80;67.60;;;;;;4834580;29;20030;-91
2022/04/02 13:46:29;;;;;;;1.75;1.02;;;9.90;67.60;;;;;;4834601;29;20052;-91
2022/04/02 13:49:07;;;;;;;3.17;1.55;;;9.80;66.90;;;;;;4834911;29;20037;-90
2022/04/02 13:51:40;;;;;;;3.13;1.00;;;9.70;67.10;;;;;;4835494;29;20112;-90
2022/04/02 13:54:34;;;;;;;4.70;1.52;;;9.70;67.20;;;;;;4834375;29;20099;-90
2022/04/02 13:57:03;;;;;;;2.88;1.30;;;9.80;67.40;;;;;;4767223;30;20031;-90
2022/04/02 13:59:32;;;;;;;2.60;1.05;;;9.80;67.40;;;;;;4777973;30;20042;-90
2022/04/02 14:01:59;;;;;;;4.22;1.27;;;10.00;67.40;;;;;;4771231;30;20047;-91
2022/04/02 14:04:36;;;;;;;1.50;0.88;;;10.30;67.00;;;;;;4752752;30;20046;-90
2022/04/02 14:07:06;;;;;;;0.88;0.85;;;10.60;66.50;;;;;;4753384;30;20050;-90
2022/04/02 14:09:33;;;;;;;1.42;0.82;;;11.00;66.10;;;;;;4754310;30;20039;-90
2022/04/02 14:12:10;;;;;;;3.15;1.10;;;11.50;65.60;;;;;;4788862;29;20104;-91
2022/04/02 14:14:41;;;;;;;2.67;0.90;;;12.00;65.30;;;;;;4789917;30;20399;-91
2022/04/02 14:17:09;;;;;;;2.95;1.10;;;12.40;65.50;;;;;;4754814;30;20032;-90
2022/04/02 14:19:50;;;;;;;4.30;1.20;;;12.50;65.60;;;;;;4756719;30;20039;-91
2022/04/02 14:22:21;;;;;;;3.90;0.98;;;12.50;65.90;;;;;;4749510;30;20103;-94
2022/04/02 14:25:14;;;;;;;2.03;1.05;;;12.50;66.30;;;;;;4770204;30;20039;-95
2022/04/02 14:28:42;;;;;;;;;;;;;;;;;;;;;
2022/04/02 16:44:57;;;;;;;4.20;2.63;;;8.90;75.90;;;;;;5703511;24;21551;-94
2022/04/02 16:47:31;;;;;;;7.80;4.72;;;8.80;76.10;;;;;;4855418;29;20677;-95
2022/04/02 16:50:03;;;;;;;10.25;5.68;;;8.80;76.50;;;;;;4823302;29;20134;-95
2022/04/02 16:52:39;;;;;;;5.18;2.97;;;8.80;76.80;;;;;;4858434;29;20030;-94
2022/04/02 16:55:25;;;;;;;6.57;2.35;;;8.80;77.10;;;;;;4842762;29;20098;-92
2022/04/02 16:58:14;;;;;;;3.22;1.25;;;8.80;77.10;;;;;;4860240;29;20090;-92
2022/04/02 17:03:42;;;;;;;11.75;5.13;;;8.80;76.60;;;;;;4841399;29;20058;-94
2022/04/02 17:06:32;;;;;;;11.45;5.20;;;8.70;76.60;;;;;;4810840;29;20038;-95
2022/04/02 17:09:37;;;;;;;;;;;;;;;;;;;;;
2022/04/02 17:12:24;;;;;;;8.23;3.40;;;8.70;76.50;;;;;;4835683;29;20078;-95
2022/04/02 17:14:59;;;;;;;6.20;3.72;;;8.70;76.30;;;;;;4845010;29;20035;-95
2022/04/02 17:17:49;;;;;;;9.40;4.03;;;8.70;76.30;;;;;;4843198;29;20046;-95
2022/04/02 17:20:31;;;;;;;2.00;1.48;;;8.60;76.50;;;;;;4824379;29;20066;-95
2022/04/02 17:23:11;;;;;;;2.10;1.77;;;8.60;76.50;;;;;;4827485;29;20043;-95
2022/04/02 17:26:05;;;;;;;;;;;;;;;;;;;;;
2022/04/02 17:28:49;;;;;;;2.42;1.17;;;8.50;76.80;;;;;;4841348;29;20070;-94
2022/04/02 17:31:37;;;;;;;1.95;1.40;;;8.60;77.00;;;;;;4827498;29;20046;-94
2022/04/02 17:34:49;;;;;;;2.90;2.00;;;8.50;76.80;;;;;;4810305;29;20034;-95
2022/04/02 17:37:54;;;;;;;3.25;1.42;;;8.50;76.90;;;;;;4822917;29;20041;-95
2022/04/02 17:40:52;;;;;;;2.97;1.08;;;8.40;76.80;;;;;;4796622;29;20055;-96
2022/04/02 17:43:39;;;;;;;;;;;;;;;;;;;;;
2022/04/02 17:46:36;;;;;;;;;;;;;;;;;;;;;
2022/04/02 17:49:31;;;;;;;4.05;1.50;;;8.30;77.00;;;;;;4836640;29;20085;-95
2022/04/02 17:52:27;;;;;;;2.60;1.42;;;8.20;76.90;;;;;;4824354;29;20042;-93
2022/04/02 17:55:07;;;;;;;;;;;;;;;;;;;;;
2022/04/02 17:58:12;;;;;;;1.50;1.33;;;8.10;77.20;;;;;;4828270;29;20058;-92
2022/04/02 18:01:08;;;;;;;;;;;;;;;;;;;;;
2022/04/02 18:04:14;;;;;;;2.10;1.55;;;7.90;77.70;;;;;;4834042;29;20081;-95
2022/04/02 18:13:23;;;;;;;6.15;3.50;;;7.70;78.60;;;;;;4881731;24;20068;-93
2022/04/02 18:21:50;;;;;;;5.35;1.83;;;7.50;80.50;;;;;;5000485;24;20058;-94
2022/04/02 18:37:47;;;;;;;3.33;1.88;;;7.10;81.60;;;;;;4914403;23;20478;-94
2022/04/02 18:40:34;;;;;;;4.28;1.75;;;7.10;81.90;;;;;;4836812;29;20060;-94
2022/04/02 18:43:05;;;;;;;2.88;1.75;;;7.00;82.10;;;;;;4831645;29;20030;-94
2022/04/02 18:45:59;;;;;;;3.05;2.42;;;7.00;82.40;;;;;;4841566;29;20033;-95
2022/04/02 18:48:55;;;;;;;2.95;1.80;;;6.90;82.70;;;;;;4833431;29;20519;-95
2022/04/02 18:51:36;;;;;;;3.03;1.92;;;6.90;83.10;;;;;;4833860;29;20098;-95
2022/04/02 18:54:44;;;;;;;4.30;2.97;;;6.80;83.20;;;;;;4840171;29;20038;-94
2022/04/02 20:32:58;;;;;;;6.60;2.13;;;4.10;92.20;;;;;;4909622;23;20054;-94
2022/04/02 20:35:27;;;;;;;4.68;3.33;;;4.00;92.30;;;;;;4844585;29;20030;-94
2022/04/02 20:37:56;;;;;;;6.70;3.17;;;3.90;92.50;;;;;;4845624;29;20089;-93
2022/04/02 20:40:37;;;;;;;10.73;4.30;;;3.90;92.70;;;;;;4858214;29;20033;-94
2022/04/02 20:43:13;;;;;;;6.72;3.03;;;3.80;92.80;;;;;;4846347;29;20050;-93
2022/04/02 20:48:17;;;;;;;4.63;2.35;;;3.70;93.20;;;;;;5368482;24;20412;-96
2022/04/02 20:51:09;;;;;;;6.53;2.67;;;3.60;93.30;;;;;;4863042;29;20037;-93
2022/04/02 20:53:43;;;;;;;7.00;3.33;;;3.50;93.50;;;;;;4861310;29;20040;-94
2022/04/02 20:56:14;;;;;;;4.25;2.80;;;3.40;93.70;;;;;;4859014;29;20086;-91
2022/04/02 20:58:41;;;;;;;7.65;3.00;;;3.40;93.80;;;;;;4875277;29;20026;-93
2022/04/02 21:01:10;;;;;;;6.72;3.53;;;3.40;94.00;;;;;;4858024;29;20049;-92
2022/04/02 21:03:38;;;;;;;5.32;3.40;;;3.20;94.20;;;;;;4854481;29;20037;-92
2022/04/02 21:06:04;;;;;;;7.13;3.08;;;3.20;94.40;;;;;;4852078;29;20173;-91
2022/04/02 21:08:37;;;;;;;7.00;3.15;;;3.20;94.60;;;;;;4868538;29;20445;-93
2022/04/02 21:11:07;;;;;;;4.60;2.75;;;3.10;94.80;;;;;;4840138;29;20469;-93
2022/04/02 21:13:33;;;;;;;7.75;2.78;;;3.10;95.00;;;;;;4853904;29;20045;-92
2022/04/02 21:15:59;;;;;;;8.57;3.25;;;3.00;95.10;;;;;;4841793;29;20103;-93
2022/04/02 21:18:25;;;;;;;4.57;3.05;;;3.00;95.30;;;;;;4856442;29;20037;-92
2022/04/02 21:20:51;;;;;;;7.18;3.20;;;3.00;95.50;;;;;;4836466;29;20036;-93
2022/04/02 21:23:22;;;;;;;6.25;3.00;;;2.90;95.60;;;;;;4839851;29;20037;-92
2022/04/02 21:25:49;;;;;;;4.45;2.50;;;2.90;95.80;;;;;;4855728;29;20037;-92
2022/04/02 21:28:17;;;;;;;4.28;2.75;;;2.80;96.00;;;;;;4827098;29;20438;-92
2022/04/02 21:31:04;;;;;;;5.57;3.22;;;2.80;96.20;;;;;;4846636;29;20093;-93
2022/04/02 21:33:36;;;;;;;6.03;2.88;;;2.80;96.40;;;;;;4873817;29;20038;-93
2022/04/02 21:36:12;;;;;;;5.20;3.30;;;2.70;96.40;;;;;;4850739;29;20151;-92
2022/04/02 21:38:40;;;;;;;4.53;2.97;;;2.70;96.60;;;;;;4864600;29;20093;-94
2022/04/02 21:41:40;;;;;;;3.97;2.78;;;2.60;96.70;;;;;;4841487;29;20081;-93
2022/04/02 21:44:04;;;;;;;5.82;3.20;;;2.60;97.00;;;;;;4861129;29;20505;-94
2022/04/02 21:47:00;;;;;;;4.43;2.63;;;2.50;97.20;;;;;;4845926;29;20018;-94
2022/04/02 21:49:38;;;;;;;5.57;2.90;;;2.50;97.30;;;;;;4853593;29;20050;-95
2022/04/02 21:52:07;;;;;;;6.40;3.17;;;2.40;97.30;;;;;;4842717;29;20010;-94
2022/04/02 21:54:35;;;;;;;5.28;3.40;;;2.30;97.50;;;;;;4830516;29;20149;-93